createdAt,value
2019-03-26T00:04:05.910Z,100.00
2019-03-26T00:06:40.727Z,100.00
2019-03-26T00:09:10.591Z,100.00
2019-03-26T00:11:59.710Z,100.00
2019-03-26T00:14:29.798Z,100.00
2019-03-26T00:16:59.693Z,100.00
2019-03-26T00:19:29.485Z,100.00
2019-03-26T00:21:59.012Z,100.00
2019-03-26T00:24:28.659Z,100.00
2019-03-26T00:26:58.261Z,100.00
2019-03-26T00:29:27.623Z,100.00
2019-03-26T00:31:57.356Z,100.00
2019-03-26T00:34:26.704Z,100.00
2019-03-26T00:36:56.073Z,100.00
2019-03-26T00:39:25.424Z,100.00
2019-03-26T00:41:54.772Z,100.00
2019-03-26T00:44:24.196Z,100.00
2019-03-26T00:46:53.617Z,100.00
2019-03-26T00:49:22.970Z,100.00
2019-03-26T00:51:52.580Z,100.00
2019-03-26T00:54:21.923Z,100.00
2019-03-26T00:56:51.266Z,100.00
2019-03-26T00:59:20.638Z,100.00
2019-03-26T01:01:49.988Z,100.00
2019-03-26T01:04:31.778Z,100.00
2019-03-26T01:07:00.078Z,100.00
2019-03-26T01:09:29.428Z,100.00
2019-03-26T01:11:59.064Z,100.00
2019-03-26T01:14:28.511Z,100.00
2019-03-26T01:17:17.223Z,100.00
2019-03-26T01:19:46.588Z,100.00
2019-03-26T01:22:15.949Z,100.00
2019-03-26T01:24:45.659Z,100.00
2019-03-26T01:27:15.279Z,100.00
2019-03-26T01:29:45.174Z,100.00
2019-03-26T01:32:16.509Z,100.00
2019-03-26T01:34:46.466Z,100.00
2019-03-26T01:37:22.382Z,100.00
2019-03-26T01:39:51.728Z,100.00
2019-03-26T01:42:21.076Z,100.00
2019-03-26T01:44:50.435Z,100.00
2019-03-26T01:47:19.784Z,100.00
2019-03-26T01:49:49.138Z,100.00
2019-03-26T01:52:18.507Z,100.00
2019-03-26T01:54:54.021Z,100.00
2019-03-26T01:57:23.389Z,100.00
2019-03-26T01:59:53.058Z,100.00
2019-03-26T02:02:22.641Z,100.00
2019-03-26T02:04:59.818Z,100.00
2019-03-26T02:07:28.652Z,100.00
2019-03-26T02:09:58.334Z,100.00
2019-03-26T02:12:27.696Z,100.00
2019-03-26T02:14:57.114Z,100.00
2019-03-26T02:17:26.533Z,100.00
2019-03-26T02:19:55.896Z,100.00
2019-03-26T02:22:25.556Z,100.00
2019-03-26T02:24:54.904Z,100.00
2019-03-26T02:27:24.267Z,100.00
2019-03-26T02:29:53.617Z,100.00
2019-03-26T02:32:22.964Z,100.00
2019-03-26T02:34:52.327Z,100.00
2019-03-26T02:37:21.717Z,100.00
2019-03-26T02:39:51.276Z,100.00
2019-03-26T02:42:20.641Z,100.00
2019-03-26T02:44:49.989Z,100.00
2019-03-26T02:47:19.597Z,100.00
2019-03-26T02:49:48.955Z,100.00
2019-03-26T02:52:18.305Z,100.00
2019-03-26T02:54:47.654Z,100.00
2019-03-26T02:57:17.301Z,100.00
2019-03-26T02:59:46.642Z,100.00
2019-03-26T03:02:15.989Z,100.00
2019-03-26T03:04:45.354Z,100.00
2019-03-26T03:07:14.703Z,100.00
2019-03-26T03:09:44.048Z,100.00
2019-03-26T03:12:13.410Z,100.00
2019-03-26T03:14:42.760Z,100.00
2019-03-26T03:17:12.185Z,100.00
2019-03-26T03:19:41.550Z,100.00
2019-03-26T03:22:10.902Z,100.00
2019-03-26T03:24:40.251Z,100.00
2019-03-26T03:27:09.603Z,100.00
2019-03-26T03:29:58.045Z,100.00
2019-03-26T03:32:27.431Z,100.00
2019-03-26T03:34:56.768Z,100.00
2019-03-26T03:37:26.095Z,100.00
2019-03-26T03:39:55.459Z,100.00
2019-03-26T03:42:24.797Z,100.00
2019-03-26T03:44:54.500Z,100.00
2019-03-26T03:47:44.872Z,100.00
2019-03-26T03:59:30.617Z,100.00
2019-03-26T04:01:59.964Z,100.00
2019-03-26T04:04:48.695Z,100.00
2019-03-26T04:07:18.041Z,100.00
2019-03-26T04:09:47.433Z,100.00
2019-03-26T04:12:17.096Z,100.00
2019-03-26T04:14:48.075Z,100.00
2019-03-26T04:17:17.447Z,100.00
2019-03-26T04:19:46.798Z,100.00
2019-03-26T04:22:16.133Z,100.00
2019-03-26T04:24:45.747Z,100.00
2019-03-26T04:27:15.099Z,100.00
2019-03-26T04:29:44.452Z,100.00
2019-03-26T04:32:14.164Z,100.00
2019-03-26T04:34:43.543Z,100.00
2019-03-26T04:37:12.891Z,100.00
2019-03-26T04:39:42.257Z,100.00
2019-03-26T04:42:11.659Z,100.00
2019-03-26T04:44:41.275Z,100.00
2019-03-26T04:47:10.636Z,100.00
2019-03-26T04:49:39.984Z,100.00
2019-03-26T04:52:09.582Z,100.00
2019-03-26T04:54:38.951Z,100.00
2019-03-26T04:57:08.532Z,100.00
2019-03-26T04:59:37.879Z,100.00
2019-03-26T05:02:07.493Z,100.00
2019-03-26T05:04:37.111Z,100.00
2019-03-26T05:07:06.855Z,100.00
2019-03-26T05:09:55.307Z,100.00
2019-03-26T05:12:24.984Z,100.00
2019-03-26T05:14:54.593Z,100.00
2019-03-26T05:17:24.299Z,100.00
2019-03-26T05:19:53.904Z,100.00
2019-03-26T05:22:24.534Z,100.00
2019-03-26T05:25:13.791Z,100.00
2019-03-26T05:27:45.751Z,100.00
2019-03-26T05:30:23.935Z,100.00
2019-03-26T05:32:53.291Z,100.00
2019-03-26T05:35:22.635Z,100.00
2019-03-26T05:37:51.992Z,100.00
2019-03-26T05:40:21.352Z,100.00
2019-03-26T05:42:50.990Z,100.00
2019-03-26T05:45:20.422Z,100.00
2019-03-26T05:47:49.772Z,100.00
2019-03-26T05:50:19.173Z,100.00
2019-03-26T05:52:48.555Z,100.00
2019-03-26T05:55:18.161Z,100.00
2019-03-26T05:57:47.499Z,100.00
2019-03-26T06:00:57.008Z,100.00
2019-03-26T06:03:26.366Z,100.00
2019-03-26T06:05:55.785Z,100.00
2019-03-26T06:08:25.138Z,100.00
2019-03-26T06:10:54.766Z,100.00
2019-03-26T06:13:43.460Z,100.00
2019-03-26T06:16:13.140Z,100.00
2019-03-26T06:18:42.480Z,100.00
2019-03-26T06:21:11.848Z,100.00
2019-03-26T06:23:41.199Z,100.00
2019-03-26T06:26:10.846Z,100.00
2019-03-26T06:28:40.208Z,100.00
2019-03-26T06:31:09.855Z,100.00
2019-03-26T06:33:39.200Z,100.00
2019-03-26T06:36:08.547Z,100.00
2019-03-26T06:38:38.280Z,100.00
2019-03-26T06:41:07.643Z,100.00
2019-03-26T06:43:37.275Z,100.00
2019-03-26T06:46:06.632Z,100.00
2019-03-26T06:48:36.291Z,100.00
2019-03-26T06:51:07.536Z,100.00
2019-03-26T06:53:36.893Z,100.00
2019-03-26T06:58:47.724Z,100.00
2019-03-26T07:04:18.073Z,100.00
2019-03-26T07:06:47.675Z,100.00
2019-03-26T07:09:17.285Z,100.00
2019-03-26T07:11:46.643Z,100.00
2019-03-26T07:14:16.293Z,100.00
2019-03-26T07:16:45.647Z,100.00
2019-03-26T07:19:14.999Z,100.00
2019-03-26T07:21:49.449Z,100.00
2019-03-26T07:24:34.896Z,100.00
2019-03-26T07:27:04.287Z,100.00
2019-03-26T07:29:33.925Z,100.00
2019-03-26T07:32:03.636Z,100.00
2019-03-26T07:34:33.009Z,100.00
2019-03-26T07:37:02.630Z,100.00
2019-03-26T07:39:31.975Z,100.00
2019-03-26T07:42:01.636Z,100.00
2019-03-26T07:44:31.245Z,100.00
2019-03-26T07:47:00.852Z,100.00
2019-03-26T07:49:30.451Z,100.00
2019-03-26T07:52:00.081Z,100.00
2019-03-26T07:54:32.445Z,100.00
2019-03-26T07:57:19.579Z,100.00
2019-03-26T07:59:48.961Z,100.00
2019-03-26T08:02:18.308Z,100.00
2019-03-26T08:04:47.655Z,100.00
2019-03-26T08:07:17.271Z,100.00
2019-03-26T08:09:46.616Z,100.00
2019-03-26T08:12:15.955Z,100.00
2019-03-26T08:14:45.316Z,100.00
2019-03-26T08:17:14.898Z,100.00
2019-03-26T08:19:44.540Z,100.00
2019-03-26T08:22:14.203Z,100.00
2019-03-26T08:24:43.555Z,100.00
2019-03-26T08:27:12.923Z,100.00
2019-03-26T08:29:55.060Z,100.00
2019-03-26T08:32:24.485Z,100.00
2019-03-26T08:34:53.880Z,100.00
2019-03-26T08:37:23.226Z,100.00
2019-03-26T08:39:52.922Z,100.00
2019-03-26T08:42:22.275Z,100.00
2019-03-26T08:44:51.941Z,100.00
2019-03-26T08:47:21.275Z,100.00
2019-03-26T08:49:50.624Z,100.00
2019-03-26T08:52:19.966Z,98.22
2019-03-26T08:54:49.313Z,97.08
2019-03-26T08:57:18.958Z,98.80
2019-03-26T08:59:48.761Z,97.48
2019-03-26T09:02:18.105Z,97.74
2019-03-26T09:04:47.783Z,95.24
2019-03-26T09:07:17.136Z,94.52
2019-03-26T09:09:46.779Z,92.08
2019-03-26T09:12:18.027Z,88.90
2019-03-26T09:14:47.364Z,86.03
2019-03-26T09:17:19.879Z,86.30
2019-03-26T09:19:55.263Z,84.74
2019-03-26T09:22:26.255Z,88.14
2019-03-26T09:24:57.227Z,88.82
2019-03-26T09:27:28.473Z,91.33
2019-03-26T09:29:59.745Z,92.98
2019-03-26T09:32:29.071Z,92.54
2019-03-26T09:34:58.584Z,94.90
2019-03-26T09:37:27.933Z,94.21
2019-03-26T09:39:57.414Z,92.68
2019-03-26T09:42:26.850Z,94.20
2019-03-26T09:44:56.814Z,90.91
2019-03-26T09:47:46.942Z,93.34
2019-03-26T09:50:56.248Z,91.73
2019-03-26T09:53:25.583Z,91.03
2019-03-26T09:55:54.934Z,90.52
2019-03-26T09:58:24.270Z,93.49
2019-03-26T10:00:54.010Z,91.23
2019-03-26T10:03:23.354Z,88.79
2019-03-26T10:05:52.744Z,90.41
2019-03-26T10:08:22.096Z,92.81
2019-03-26T10:10:51.436Z,90.95
2019-03-26T10:13:20.774Z,88.87
2019-03-26T10:15:50.406Z,85.73
2019-03-26T10:18:19.753Z,86.90
2019-03-26T10:20:49.093Z,88.37
2019-03-26T10:23:18.432Z,89.24
2019-03-26T10:25:48.019Z,81.85
2019-03-26T10:28:17.627Z,81.11
2019-03-26T10:30:47.238Z,80.58
2019-03-26T10:33:16.578Z,76.16
2019-03-26T10:35:45.988Z,75.44
2019-03-26T10:38:15.575Z,71.73
2019-03-26T10:40:45.264Z,76.43
2019-03-26T10:43:14.611Z,71.05
2019-03-26T10:45:44.276Z,72.03
2019-03-26T10:50:53.614Z,72.34
2019-03-26T10:53:22.960Z,70.64
2019-03-26T10:55:52.643Z,66.17
2019-03-26T10:58:22.225Z,67.42
2019-03-26T11:00:51.650Z,69.32
2019-03-26T11:03:21.350Z,70.18
2019-03-26T11:05:50.781Z,69.46
2019-03-26T11:08:20.360Z,71.13
2019-03-26T11:10:49.764Z,73.40
2019-03-26T11:13:19.123Z,69.99
2019-03-26T11:15:48.445Z,66.86
2019-03-26T11:18:18.070Z,68.48
2019-03-26T11:21:01.042Z,66.09
2019-03-26T11:23:37.872Z,68.48
2019-03-26T11:26:07.211Z,64.05
2019-03-26T11:28:36.879Z,65.54
2019-03-26T11:31:06.301Z,62.75
2019-03-26T11:33:37.267Z,61.37
2019-03-26T11:36:06.687Z,60.11
2019-03-26T11:38:36.030Z,62.18
2019-03-26T11:41:05.604Z,64.32
2019-03-26T11:43:34.947Z,64.96
2019-03-26T11:46:04.661Z,65.76
2019-03-26T11:48:34.355Z,65.89
2019-03-26T11:51:03.690Z,67.50
2019-03-26T11:53:33.379Z,65.96
2019-03-26T11:56:03.075Z,63.67
2019-03-26T11:58:32.419Z,62.29
2019-03-26T12:01:01.750Z,63.35
2019-03-26T12:03:31.116Z,62.65
2019-03-26T12:06:00.461Z,59.49
2019-03-26T12:08:30.204Z,57.86
2019-03-26T12:10:59.901Z,57.74
2019-03-26T12:13:29.299Z,56.13
2019-03-26T12:15:58.637Z,57.33
2019-03-26T12:18:27.982Z,54.34
2019-03-26T12:20:57.615Z,56.04
2019-03-26T12:23:26.972Z,54.83
2019-03-26T12:25:56.624Z,56.33
2019-03-26T12:28:26.211Z,54.56
2019-03-26T12:30:57.479Z,55.33
2019-03-26T12:33:28.723Z,54.34
2019-03-26T12:35:59.985Z,58.26
2019-03-26T12:38:29.679Z,61.14
2019-03-26T12:41:00.927Z,63.69
2019-03-26T12:43:32.180Z,65.68
2019-03-26T12:46:03.149Z,66.35
2019-03-26T12:48:34.130Z,65.95
2019-03-26T12:51:05.106Z,66.27
2019-03-26T12:53:34.453Z,64.91
2019-03-26T12:56:03.928Z,65.00
2019-03-26T12:58:36.395Z,63.94
2019-03-26T13:01:23.700Z,64.25
2019-03-26T13:03:53.123Z,65.34
2019-03-26T13:06:22.459Z,62.35
2019-03-26T13:08:51.812Z,60.39
2019-03-26T13:11:21.142Z,58.70
2019-03-26T13:17:05.281Z,59.06
2019-03-26T13:19:34.890Z,58.73
2019-03-26T13:22:04.250Z,57.58
2019-03-26T13:24:33.593Z,56.06
2019-03-26T13:27:03.197Z,57.07
2019-03-26T13:29:32.795Z,56.19
2019-03-26T13:32:04.039Z,56.72
2019-03-26T13:34:33.396Z,56.80
2019-03-26T13:37:02.737Z,55.17
2019-03-26T13:39:32.364Z,54.92
2019-03-26T13:42:01.767Z,55.52
2019-03-26T13:44:31.108Z,53.32
2019-03-26T13:47:00.711Z,52.91
2019-03-26T13:49:30.057Z,53.68
2019-03-26T13:51:59.688Z,53.70
2019-03-26T13:54:29.279Z,53.25
2019-03-26T13:56:58.887Z,51.31
2019-03-26T13:59:28.255Z,51.87
2019-03-26T14:01:57.602Z,50.74
2019-03-26T14:04:32.952Z,51.59
2019-03-26T14:07:02.299Z,51.65
2019-03-26T14:09:31.641Z,52.83
2019-03-26T14:12:00.992Z,53.50
2019-03-26T14:14:30.393Z,56.91
2019-03-26T14:17:00.168Z,54.08
2019-03-26T14:19:29.609Z,54.90
2019-03-26T14:21:58.959Z,53.10
2019-03-26T14:24:47.400Z,53.75
2019-03-26T14:27:17.010Z,52.75
2019-03-26T14:29:46.354Z,53.24
2019-03-26T14:32:15.939Z,53.86
2019-03-26T14:34:48.974Z,52.84
2019-03-26T14:37:21.732Z,49.06
2019-03-26T14:39:54.344Z,50.09
2019-03-26T14:42:28.279Z,50.58
2019-03-26T14:44:57.885Z,50.59
2019-03-26T14:47:27.239Z,49.81
2019-03-26T14:49:56.899Z,50.50
2019-03-26T14:52:26.252Z,51.01
2019-03-26T14:54:55.906Z,52.18
2019-03-26T14:57:25.514Z,52.10
2019-03-26T14:59:56.499Z,52.95
2019-03-26T15:02:26.279Z,53.64
2019-03-26T15:05:01.632Z,53.30
2019-03-26T15:07:31.315Z,54.87
2019-03-26T15:10:00.660Z,53.29
2019-03-26T15:12:30.328Z,51.92
2019-03-26T15:14:59.660Z,52.10
2019-03-26T15:17:29.333Z,52.10
2019-03-26T15:19:58.678Z,52.75
2019-03-26T15:22:28.023Z,52.58
2019-03-26T15:25:17.015Z,54.45
2019-03-26T15:27:46.372Z,53.55
2019-03-26T15:30:35.367Z,52.59
2019-03-26T15:33:44.628Z,53.38
2019-03-26T15:36:14.212Z,53.02
2019-03-26T15:38:43.551Z,54.56
2019-03-26T15:41:21.653Z,55.77
2019-03-26T15:44:03.617Z,55.97
2019-03-26T15:46:36.207Z,55.82
2019-03-26T15:49:23.410Z,54.41
2019-03-26T15:51:53.021Z,54.82
2019-03-26T15:54:22.367Z,56.21
2019-03-26T15:56:51.711Z,55.83
2019-03-26T15:59:21.332Z,55.81
2019-03-26T16:01:50.955Z,56.74
2019-03-26T16:04:20.298Z,57.61
2019-03-26T16:06:55.249Z,57.69
2019-03-26T16:09:24.600Z,58.82
2019-03-26T16:11:54.186Z,58.83
2019-03-26T16:14:23.786Z,58.45
2019-03-26T16:16:53.137Z,57.39
2019-03-26T16:19:32.054Z,58.17
2019-03-26T16:22:12.886Z,60.09
2019-03-26T16:24:42.285Z,60.09
2019-03-26T16:27:30.662Z,60.74
2019-03-26T16:29:59.998Z,61.61
2019-03-26T16:32:48.696Z,61.75
2019-03-26T16:35:18.303Z,62.86
2019-03-26T16:37:47.665Z,63.21
2019-03-26T16:40:17.310Z,63.29
2019-03-26T16:42:46.720Z,63.07
2019-03-26T16:45:16.132Z,62.83
2019-03-26T16:47:45.466Z,62.59
2019-03-26T16:50:56.598Z,62.70
2019-03-26T16:53:26.208Z,62.49
2019-03-26T16:55:57.198Z,62.63
2019-03-26T16:58:28.182Z,62.69
2019-03-26T17:00:57.536Z,62.48
2019-03-26T17:03:46.444Z,62.37
2019-03-26T17:06:15.789Z,62.90
2019-03-26T17:08:51.298Z,62.63
2019-03-26T17:11:20.654Z,63.29
2019-03-26T17:13:50.270Z,63.69
2019-03-26T17:16:20.295Z,63.49
2019-03-26T17:18:49.916Z,62.20
2019-03-26T17:21:21.773Z,61.68
2019-03-26T17:23:51.403Z,60.74
2019-03-26T17:26:21.006Z,59.24
2019-03-26T17:28:51.999Z,59.43
2019-03-26T17:31:21.338Z,59.74
2019-03-26T17:33:50.987Z,58.70
2019-03-26T17:36:20.573Z,58.13
2019-03-26T17:38:51.544Z,58.67
2019-03-26T17:41:22.852Z,57.98
2019-03-26T17:43:52.458Z,57.51
2019-03-26T17:46:21.814Z,57.44
2019-03-26T17:48:51.465Z,57.71
2019-03-26T17:51:21.087Z,57.51
2019-03-26T17:53:50.450Z,58.10
2019-03-26T17:56:19.783Z,58.99
2019-03-26T17:58:49.135Z,58.98
2019-03-26T18:01:18.469Z,58.91
2019-03-26T18:03:47.872Z,58.39
2019-03-26T18:06:17.225Z,57.86
2019-03-26T18:08:48.214Z,58.25
2019-03-26T18:11:17.832Z,58.58
2019-03-26T18:13:47.442Z,59.75
2019-03-26T18:16:16.798Z,60.73
2019-03-26T18:18:46.451Z,59.42
2019-03-26T18:21:16.058Z,59.44
2019-03-26T18:23:45.646Z,59.30
2019-03-26T18:26:14.982Z,59.97
2019-03-26T18:28:44.675Z,59.46
2019-03-26T18:31:14.258Z,59.52
2019-03-26T18:33:43.622Z,59.53
2019-03-26T18:36:12.963Z,59.17
2019-03-26T18:38:42.598Z,59.80
2019-03-26T18:41:11.938Z,60.20
2019-03-26T18:43:41.270Z,59.83
2019-03-26T18:46:10.913Z,60.05
2019-03-26T18:48:41.645Z,61.98
2019-03-26T18:51:16.751Z,61.67
2019-03-26T18:53:47.728Z,60.15
2019-03-26T18:56:17.425Z,59.44
2019-03-26T18:58:47.036Z,60.16
2019-03-26T19:01:16.657Z,59.95
2019-03-26T19:03:45.987Z,59.95
2019-03-26T19:06:15.566Z,59.90
2019-03-26T19:08:44.910Z,61.10
2019-03-26T19:11:14.675Z,60.15
2019-03-26T19:13:44.030Z,60.66
2019-03-26T19:16:13.369Z,60.67
2019-03-26T19:18:42.709Z,62.25
2019-03-26T19:21:12.052Z,60.55
2019-03-26T19:23:41.386Z,60.93
2019-03-26T19:26:10.741Z,62.34
2019-03-26T19:28:40.073Z,60.45
2019-03-26T19:31:09.680Z,60.80
2019-03-26T19:33:39.281Z,61.77
2019-03-26T19:36:08.625Z,61.20
2019-03-26T19:38:38.297Z,62.90
2019-03-26T19:41:07.905Z,63.06
2019-03-26T19:43:37.511Z,61.56
2019-03-26T19:46:06.854Z,63.13
2019-03-26T19:48:36.206Z,62.78
2019-03-26T19:51:05.824Z,62.72
2019-03-26T19:53:35.445Z,62.14
2019-03-26T19:56:05.036Z,61.68
2019-03-26T19:58:34.655Z,62.20
2019-03-26T20:01:04.331Z,62.18
2019-03-26T20:03:33.964Z,62.19
2019-03-26T20:06:12.745Z,62.69
2019-03-26T20:09:06.205Z,64.57
2019-03-26T20:11:35.812Z,64.09
2019-03-26T20:14:05.582Z,65.32
2019-03-26T20:16:41.652Z,63.23
2019-03-26T20:19:25.404Z,64.62
2019-03-26T20:21:54.757Z,64.01
2019-03-26T20:24:24.092Z,65.20
2019-03-26T20:26:53.779Z,63.91
2019-03-26T20:29:23.218Z,64.56
2019-03-26T20:31:52.554Z,63.50
2019-03-26T20:34:22.267Z,64.89
2019-03-26T20:36:51.808Z,64.46
2019-03-26T20:39:21.156Z,63.86
2019-03-26T20:42:09.839Z,66.56
2019-03-26T20:44:46.206Z,64.60
2019-03-26T20:47:15.794Z,66.29
2019-03-26T20:49:45.269Z,66.90
2019-03-26T20:52:14.949Z,67.15
2019-03-26T20:54:44.292Z,68.29
2019-03-26T20:58:05.980Z,68.58
2019-03-26T21:00:44.432Z,68.26
2019-03-26T21:03:14.014Z,68.11
2019-03-26T21:05:43.436Z,70.57
2019-03-26T21:08:13.019Z,69.24
2019-03-26T21:10:42.590Z,69.39
2019-03-26T21:13:18.210Z,69.24
2019-03-26T21:15:57.197Z,67.81
2019-03-26T21:18:38.253Z,68.27
2019-03-26T21:21:07.782Z,69.20
2019-03-26T21:23:37.114Z,69.29
2019-03-26T21:26:06.779Z,69.84
2019-03-26T21:28:36.115Z,70.43
2019-03-26T21:31:05.467Z,70.02
2019-03-26T21:33:34.810Z,71.19
2019-03-26T21:41:44.074Z,71.23
2019-03-26T21:44:15.048Z,70.76
2019-03-26T21:46:46.345Z,72.47
2019-03-26T21:49:15.684Z,71.90
2019-03-26T21:51:45.392Z,73.00
2019-03-26T21:54:14.777Z,73.89
2019-03-26T21:56:45.878Z,73.71
2019-03-26T21:59:27.807Z,71.05
2019-03-26T22:01:57.397Z,72.55
2019-03-26T22:04:26.754Z,72.54
2019-03-26T22:06:56.415Z,72.49
2019-03-26T22:09:25.753Z,69.42
2019-03-26T22:11:55.099Z,69.79
2019-03-26T22:14:24.455Z,69.89
2019-03-26T22:16:53.831Z,69.65
2019-03-26T22:19:42.565Z,71.64
2019-03-26T22:22:11.908Z,70.58
2019-03-26T22:24:41.255Z,71.37
2019-03-26T22:27:29.680Z,71.15
2019-03-26T22:29:59.334Z,69.93
2019-03-26T22:32:28.941Z,71.58
2019-03-26T22:34:58.563Z,71.01
2019-03-26T22:37:27.942Z,70.15
2019-03-26T22:39:57.557Z,72.14
2019-03-26T22:42:27.166Z,69.84
2019-03-26T22:44:56.758Z,68.97
2019-03-26T22:47:26.090Z,70.90
2019-03-26T22:49:57.317Z,71.43
2019-03-26T22:52:45.567Z,72.97
2019-03-26T22:55:15.280Z,72.95
2019-03-26T22:58:03.719Z,72.98
2019-03-26T23:03:28.506Z,73.38
2019-03-26T23:05:57.858Z,72.08
2019-03-26T23:08:27.188Z,72.67
2019-03-26T23:10:56.545Z,71.84
2019-03-26T23:13:25.872Z,73.47
2019-03-26T23:16:00.639Z,73.71
2019-03-26T23:18:30.283Z,72.18
2019-03-26T23:20:59.619Z,71.98
2019-03-26T23:23:29.290Z,74.08
2019-03-26T23:25:58.626Z,72.06
2019-03-26T23:28:28.208Z,73.58
2019-03-26T23:30:57.807Z,72.20
2019-03-26T23:33:27.415Z,72.65
2019-03-26T23:35:56.771Z,73.13
2019-03-26T23:38:26.427Z,74.48
2019-03-26T23:43:29.152Z,74.38
2019-03-26T23:45:58.486Z,76.43
2019-03-26T23:48:27.838Z,75.49
2019-03-26T23:50:57.438Z,75.54
2019-03-26T23:53:27.043Z,72.96
2019-03-26T23:55:56.648Z,73.24
2019-03-26T23:58:26.228Z,73.64
